Time;durP1;ratioP1;P1;durP2;ratioP2;P2;SDS_P1;SDS_P2;PMS_P1;PMS_P2;Temp;Humidity;BMP_temperature;BMP_pressure;BME280_temperature;BME280_humidity;BME280_pressure;Samples;Min_cycle;Max_cycle;Signal;HPM_P1;HPM_P2
2022/05/30 00:01:37;;;;;;;8.23;1.00;;;8.20;99.90;;;;;;5045643;28;20056;-69
2022/05/30 00:04:03;;;;;;;10.60;1.17;;;8.20;99.90;;;;;;5047617;28;20045;-64
2022/05/30 00:06:29;;;;;;;4.72;1.15;;;8.10;99.90;;;;;;5065446;28;20515;-62
2022/05/30 00:08:56;;;;;;;3.92;1.00;;;8.10;99.90;;;;;;5068628;28;20053;-62
2022/05/30 00:11:22;;;;;;;6.50;1.42;;;8.10;99.90;;;;;;5065870;28;20052;-67
2022/05/30 00:13:48;;;;;;;5.20;0.88;;;8.10;99.90;;;;;;5068765;28;20083;-61
2022/05/30 00:16:17;;;;;;;3.65;1.27;;;8.10;99.90;;;;;;5065881;28;20047;-62
2022/05/30 00:18:44;;;;;;;2.88;0.93;;;8.10;99.90;;;;;;5066879;28;20056;-63
2022/05/30 00:21:10;;;;;;;7.03;0.93;;;8.10;99.90;;;;;;5066380;28;20503;-70
2022/05/30 00:23:36;;;;;;;5.70;1.27;;;8.20;99.90;;;;;;5066361;28;20045;-66
2022/05/30 00:26:05;;;;;;;2.20;0.80;;;8.20;99.90;;;;;;5067363;28;20061;-67
2022/05/30 00:28:31;;;;;;;12.05;2.03;;;8.20;99.90;;;;;;5045160;28;20041;-62
2022/05/30 00:30:57;;;;;;;5.88;1.00;;;8.20;99.90;;;;;;5059438;28;20669;-65
2022/05/30 00:33:22;;;;;;;9.07;1.92;;;8.30;99.90;;;;;;5064692;28;20055;-63
2022/05/30 00:35:48;;;;;;;8.77;1.30;;;8.30;99.90;;;;;;5051089;28;20051;-61
2022/05/30 00:38:14;;;;;;;6.57;0.93;;;8.30;99.90;;;;;;5030494;28;20045;-61
2022/05/30 00:40:41;;;;;;;4.72;1.15;;;8.30;99.90;;;;;;5067047;28;20046;-66
2022/05/30 00:43:38;;;;;;;7.35;1.02;;;8.20;99.90;;;;;;5066733;28;20041;-59
2022/05/30 00:46:12;;;;;;;6.03;1.20;;;8.20;99.90;;;;;;5032418;28;20113;-63
2022/05/30 00:49:00;;;;;;;4.50;1.10;;;8.20;99.90;;;;;;5066179;28;20075;-62
2022/05/30 00:51:37;;;;;;;4.53;1.25;;;8.20;99.90;;;;;;5045439;28;20057;-65
2022/05/30 00:54:07;;;;;;;4.32;1.23;;;8.30;99.90;;;;;;5049143;28;20045;-66
2022/05/30 00:56:37;;;;;;;6.50;1.10;;;8.30;99.90;;;;;;5049680;28;20083;-64
2022/05/30 00:59:04;;;;;;;3.45;1.00;;;8.30;99.90;;;;;;5065136;28;20041;-60
2022/05/30 01:01:32;;;;;;;7.13;1.20;;;8.30;99.90;;;;;;5066385;28;20502;-65
2022/05/30 01:06:46;;;;;;;4.85;0.93;;;8.20;99.90;;;;;;5066471;28;20972;-63
2022/05/30 01:09:16;;;;;;;6.65;1.55;;;8.20;99.90;;;;;;5065875;28;20049;-62
2022/05/30 01:11:49;;;;;;;9.70;1.67;;;8.20;99.90;;;;;;5064862;28;20053;-66
2022/05/30 01:14:15;;;;;;;4.93;1.13;;;8.30;99.90;;;;;;5049685;28;20090;-63
2022/05/30 01:16:41;;;;;;;8.63;1.50;;;8.30;99.90;;;;;;5064466;28;20044;-65
2022/05/30 01:19:30;;;;;;;7.22;1.40;;;8.20;99.90;;;;;;5049663;28;20067;-63
2022/05/30 01:22:24;;;;;;;6.53;1.52;;;8.30;99.90;;;;;;5065496;28;20123;-60
2022/05/30 01:25:14;;;;;;;7.80;1.52;;;8.30;99.90;;;;;;5050001;28;20064;-64
2022/05/30 01:28:10;;;;;;;6.13;1.25;;;8.30;99.90;;;;;;5055811;28;20064;-69
2022/05/30 01:30:38;;;;;;;8.57;2.10;;;8.30;99.90;;;;;;5065103;28;20056;-59
2022/05/30 01:33:04;;;;;;;6.47;1.30;;;8.30;99.90;;;;;;5048214;28;20119;-66
2022/05/30 01:35:30;;;;;;;6.55;1.52;;;8.20;99.90;;;;;;5048989;28;20616;-60
2022/05/30 01:37:57;;;;;;;6.25;1.42;;;8.20;99.90;;;;;;5064059;28;20044;-59
2022/05/30 01:40:26;;;;;;;7.80;1.20;;;8.20;99.90;;;;;;5065639;28;20411;-62
2022/05/30 01:42:54;;;;;;;6.53;1.25;;;8.20;99.90;;;;;;5044274;28;20049;-62
2022/05/30 01:45:20;;;;;;;6.03;1.63;;;8.20;99.90;;;;;;5065690;28;20056;-60
2022/05/30 01:47:46;;;;;;;7.32;1.88;;;8.20;99.90;;;;;;5064515;28;20386;-60
2022/05/30 01:50:12;;;;;;;6.30;1.33;;;8.10;99.90;;;;;;5065145;28;20044;-63
2022/05/30 01:52:38;;;;;;;4.82;1.17;;;8.20;99.90;;;;;;5066015;28;20060;-61
2022/05/30 01:55:04;;;;;;;6.50;1.30;;;8.10;99.90;;;;;;5063939;28;20399;-60
2022/05/30 01:57:30;;;;;;;5.13;1.20;;;8.10;99.90;;;;;;5065761;28;20174;-64
2022/05/30 01:59:56;;;;;;;5.55;1.17;;;8.10;99.90;;;;;;5030575;28;20041;-59
2022/05/30 02:02:22;;;;;;;6.28;1.50;;;8.10;99.90;;;;;;5065967;28;20045;-64
2022/05/30 02:04:48;;;;;;;7.68;1.20;;;8.00;99.90;;;;;;5063857;28;20506;-58
2022/05/30 02:07:14;;;;;;;5.20;1.20;;;8.00;99.90;;;;;;5045515;28;20037;-67
2022/05/30 02:09:39;;;;;;;6.25;1.27;;;8.00;99.90;;;;;;5059853;28;20048;-59
2022/05/30 02:12:05;;;;;;;3.72;1.08;;;8.00;99.90;;;;;;5064986;28;20484;-71
2022/05/30 02:14:31;;;;;;;3.97;1.33;;;7.90;99.90;;;;;;5065507;28;20048;-60
2022/05/30 02:17:00;;;;;;;6.50;1.40;;;7.80;99.90;;;;;;5063693;28;20052;-64
2022/05/30 02:19:26;;;;;;;4.57;1.20;;;7.80;99.90;;;;;;5048895;28;20471;-67
2022/05/30 02:21:52;;;;;;;3.03;0.90;;;7.70;99.90;;;;;;5063880;28;20429;-60
2022/05/30 02:24:18;;;;;;;3.65;1.15;;;7.70;99.90;;;;;;5065016;28;20499;-65
2022/05/30 02:26:44;;;;;;;3.90;1.17;;;7.70;99.90;;;;;;5064210;28;20053;-59
2022/05/30 02:29:10;;;;;;;3.65;1.55;;;7.60;99.90;;;;;;5064561;28;20057;-68
2022/05/30 02:31:36;;;;;;;3.28;1.05;;;7.60;99.90;;;;;;5065020;28;20044;-58
2022/05/30 02:36:48;;;;;;;3.67;0.88;;;7.60;99.90;;;;;;5065488;28;20392;-62
2022/05/30 02:39:18;;;;;;;2.38;0.90;;;7.60;99.90;;;;;;5046876;28;20047;-69
2022/05/30 02:41:46;;;;;;;2.95;1.15;;;7.50;99.90;;;;;;5065551;28;20384;-63
2022/05/30 02:44:20;;;;;;;2.50;0.88;;;7.50;99.90;;;;;;5045978;28;20045;-59
2022/05/30 02:46:54;;;;;;;5.13;1.00;;;7.50;99.90;;;;;;5062524;28;20055;-67
2022/05/30 02:49:21;;;;;;;4.47;1.17;;;7.50;99.90;;;;;;5048721;28;20051;-60
2022/05/30 02:51:47;;;;;;;4.90;1.13;;;7.50;99.90;;;;;;5063638;28;20040;-59
2022/05/30 02:54:13;;;;;;;3.47;0.82;;;7.50;99.90;;;;;;5069370;28;20593;-64
2022/05/30 02:56:40;;;;;;;5.03;1.05;;;7.40;99.90;;;;;;5050322;28;20052;-59
2022/05/30 02:59:07;;;;;;;5.32;1.15;;;7.50;99.90;;;;;;5069754;28;20057;-62
2022/05/30 03:01:34;;;;;;;3.05;0.90;;;7.50;99.90;;;;;;5070056;28;20048;-59
2022/05/30 03:04:01;;;;;;;4.97;1.30;;;7.50;99.90;;;;;;5067752;28;20132;-64
2022/05/30 03:06:28;;;;;;;5.00;1.05;;;7.40;99.90;;;;;;5069114;28;20495;-60
2022/05/30 03:08:56;;;;;;;5.22;1.00;;;7.40;99.90;;;;;;5066973;28;20132;-69
2022/05/30 03:11:22;;;;;;;6.15;1.00;;;7.40;99.90;;;;;;5068747;28;20102;-66
2022/05/30 03:13:48;;;;;;;7.25;1.08;;;7.40;99.90;;;;;;5066849;28;20048;-65
2022/05/30 03:16:15;;;;;;;4.50;1.00;;;7.40;99.90;;;;;;5052001;28;20044;-69
2022/05/30 03:18:41;;;;;;;5.80;1.42;;;7.40;99.90;;;;;;5047598;28;20106;-58
2022/05/30 03:21:07;;;;;;;4.63;1.42;;;7.40;99.90;;;;;;5048489;28;20047;-63
2022/05/30 03:23:33;;;;;;;4.07;0.98;;;7.40;99.90;;;;;;5051986;28;20056;-58
2022/05/30 03:25:59;;;;;;;5.50;1.17;;;7.40;99.90;;;;;;5066286;28;20266;-63
2022/05/30 03:28:25;;;;;;;3.03;1.15;;;7.40;99.90;;;;;;5068779;28;20056;-59
2022/05/30 03:30:51;;;;;;;5.75;1.35;;;7.40;99.90;;;;;;5066221;28;20044;-62
2022/05/30 03:33:17;;;;;;;2.85;0.95;;;7.40;99.90;;;;;;5069769;28;20098;-63
2022/05/30 03:35:43;;;;;;;5.30;1.42;;;7.40;99.90;;;;;;5030113;28;20044;-62
2022/05/30 03:38:10;;;;;;;2.55;0.90;;;7.30;99.90;;;;;;5065542;28;20051;-61
2022/05/30 03:40:39;;;;;;;11.05;1.17;;;7.40;99.90;;;;;;5051418;28;20398;-59
2022/05/30 03:43:10;;;;;;;3.90;0.90;;;7.40;99.90;;;;;;5049840;28;20052;-66
2022/05/30 03:45:37;;;;;;;5.30;1.60;;;7.40;99.90;;;;;;5068433;28;20059;-61
2022/05/30 03:48:04;;;;;;;4.00;1.02;;;7.40;99.90;;;;;;5047641;28;20041;-60
2022/05/30 03:50:31;;;;;;;4.90;0.98;;;7.40;99.90;;;;;;5068334;28;20587;-66
2022/05/30 03:53:04;;;;;;;4.22;1.08;;;7.40;99.90;;;;;;5066009;28;20045;-70
2022/05/30 03:55:42;;;;;;;2.25;1.00;;;7.50;99.90;;;;;;5048225;28;20091;-67
2022/05/30 03:58:10;;;;;;;3.40;0.95;;;7.40;99.90;;;;;;5062334;28;20050;-59
2022/05/30 04:00:36;;;;;;;5.97;1.00;;;7.50;99.90;;;;;;5066510;28;20063;-63
2022/05/30 04:03:03;;;;;;;3.28;0.98;;;7.60;99.90;;;;;;5067086;28;20044;-58
2022/05/30 04:05:29;;;;;;;5.65;0.80;;;7.60;99.90;;;;;;5065974;28;20106;-62
2022/05/30 04:08:00;;;;;;;4.13;0.80;;;7.60;99.90;;;;;;5067775;28;20051;-60
2022/05/30 04:10:26;;;;;;;5.25;1.20;;;7.60;99.90;;;;;;5049803;28;20407;-66
2022/05/30 04:13:00;;;;;;;8.15;1.20;;;7.60;99.90;;;;;;5048498;28;20083;-64
2022/05/30 04:15:26;;;;;;;3.25;1.00;;;7.70;99.90;;;;;;5050990;28;20084;-67
2022/05/30 04:17:52;;;;;;;3.05;1.00;;;7.70;99.90;;;;;;5065587;28;20084;-59
2022/05/30 04:20:18;;;;;;;5.05;1.00;;;7.70;99.90;;;;;;5047695;28;20047;-66
2022/05/30 04:22:44;;;;;;;4.65;1.02;;;7.70;99.90;;;;;;5048188;28;20099;-60
2022/05/30 04:25:10;;;;;;;5.38;0.95;;;7.70;99.90;;;;;;5050472;28;20064;-68
2022/05/30 04:27:36;;;;;;;4.78;1.10;;;7.80;99.90;;;;;;5065898;28;20036;-63
2022/05/30 04:30:04;;;;;;;5.35;0.98;;;7.70;99.90;;;;;;5067016;28;20080;-60
2022/05/30 04:32:30;;;;;;;3.50;1.13;;;7.70;99.90;;;;;;5047016;28;20124;-59
2022/05/30 04:34:55;;;;;;;4.40;1.00;;;7.80;99.90;;;;;;5048167;28;20127;-59
2022/05/30 04:37:22;;;;;;;8.85;1.10;;;7.70;99.90;;;;;;5067619;28;20053;-59
2022/05/30 04:39:48;;;;;;;2.88;0.85;;;7.80;99.90;;;;;;5065204;28;20103;-67
2022/05/30 04:42:14;;;;;;;10.88;1.20;;;7.80;99.90;;;;;;5067387;28;20414;-58
2022/05/30 04:44:40;;;;;;;5.40;1.00;;;7.80;99.90;;;;;;5064952;28;20579;-61
2022/05/30 04:47:07;;;;;;;5.78;0.73;;;7.80;99.90;;;;;;5050154;28;20052;-65
2022/05/30 04:49:33;;;;;;;3.20;0.90;;;7.80;99.90;;;;;;5066542;28;20059;-58
2022/05/30 04:51:59;;;;;;;3.17;1.10;;;7.90;99.90;;;;;;5049160;28;20044;-62
2022/05/30 04:54:25;;;;;;;2.85;0.80;;;7.80;99.90;;;;;;5050286;28;20051;-60
2022/05/30 04:56:51;;;;;;;5.97;1.00;;;7.90;99.90;;;;;;5065116;28;20867;-61
2022/05/30 04:59:17;;;;;;;4.18;0.88;;;8.00;99.90;;;;;;5047565;28;20068;-59
2022/05/30 05:01:43;;;;;;;2.05;0.68;;;8.00;99.90;;;;;;5062208;28;20048;-60
2022/05/30 05:04:11;;;;;;;4.80;0.80;;;8.10;99.90;;;;;;5046760;28;20055;-69
2022/05/30 05:06:39;;;;;;;6.78;0.75;;;8.10;99.90;;;;;;5063489;28;20050;-58
2022/05/30 05:09:24;;;;;;;2.70;0.85;;;8.20;99.90;;;;;;5051460;28;20045;-61
2022/05/30 05:11:51;;;;;;;1.85;1.00;;;8.20;99.90;;;;;;5066885;28;20058;-69
2022/05/30 05:14:17;;;;;;;1.70;0.73;;;8.30;99.90;;;;;;5064910;28;20116;-63
2022/05/30 05:16:42;;;;;;;4.75;1.00;;;8.40;99.90;;;;;;5066418;28;20084;-68
2022/05/30 05:19:09;;;;;;;3.65;0.95;;;8.50;99.90;;;;;;5063968;28;20048;-63
2022/05/30 05:21:37;;;;;;;2.63;1.02;;;8.60;99.90;;;;;;5066472;28;20079;-64
2022/05/30 05:24:06;;;;;;;5.20;0.98;;;8.70;99.90;;;;;;5047985;28;20041;-59
2022/05/30 05:26:32;;;;;;;3.75;0.90;;;8.70;99.90;;;;;;5062669;28;20081;-62
2022/05/30 05:28:59;;;;;;;5.03;1.00;;;8.80;99.90;;;;;;5063297;28;20040;-60
2022/05/30 05:31:34;;;;;;;5.30;0.75;;;8.90;99.90;;;;;;5062476;28;20040;-64
2022/05/30 05:34:03;;;;;;;2.42;0.73;;;9.00;99.90;;;;;;5050099;28;20060;-67
2022/05/30 05:36:32;;;;;;;4.18;0.90;;;9.30;99.90;;;;;;5046168;28;20037;-60
2022/05/30 05:38:58;;;;;;;6.03;1.17;;;9.60;99.90;;;;;;5043091;28;20451;-69
2022/05/30 05:41:24;;;;;;;5.03;1.15;;;9.80;99.90;;;;;;5051420;28;20041;-63
2022/05/30 05:43:53;;;;;;;3.90;1.02;;;10.00;99.90;;;;;;5044952;28;20048;-67
2022/05/30 05:46:25;;;;;;;2.70;0.55;;;10.00;99.90;;;;;;5067658;28;20123;-63
2022/05/30 05:48:54;;;;;;;4.82;0.93;;;10.00;99.90;;;;;;5064341;28;20083;-62
2022/05/30 05:51:21;;;;;;;2.15;0.60;;;10.00;99.90;;;;;;5049387;28;20055;-60
2022/05/30 05:53:48;;;;;;;3.65;0.95;;;10.10;99.90;;;;;;5063980;28;20487;-59
2022/05/30 05:56:20;;;;;;;2.40;0.90;;;10.10;99.90;;;;;;5064666;28;20155;-69
2022/05/30 05:58:46;;;;;;;3.00;0.75;;;10.10;99.90;;;;;;5064036;28;20033;-67
2022/05/30 06:01:23;;;;;;;4.45;0.90;;;10.10;99.90;;;;;;5064710;28;20044;-63
2022/05/30 06:03:55;;;;;;;4.68;1.20;;;10.10;99.90;;;;;;5066020;28;20040;-59
2022/05/30 06:06:22;;;;;;;3.50;0.90;;;10.20;99.90;;;;;;5047983;28;20044;-62
2022/05/30 06:08:49;;;;;;;6.00;0.90;;;10.20;99.90;;;;;;5065555;28;20048;-64
2022/05/30 06:11:16;;;;;;;2.60;0.90;;;10.20;99.90;;;;;;5063763;28;20556;-60
2022/05/30 06:13:46;;;;;;;3.60;0.60;;;10.20;99.90;;;;;;5066040;28;20056;-69
2022/05/30 06:16:16;;;;;;;3.13;0.60;;;10.20;99.90;;;;;;5064452;28;20045;-65
2022/05/30 06:18:42;;;;;;;2.97;0.60;;;10.30;99.90;;;;;;5064762;28;20474;-70
2022/05/30 06:21:08;;;;;;;2.05;0.60;;;10.30;99.90;;;;;;5064933;28;20083;-61
2022/05/30 06:23:34;;;;;;;2.58;0.60;;;10.40;99.90;;;;;;5047195;28;20095;-68
2022/05/30 06:26:04;;;;;;;3.08;0.70;;;10.40;99.90;;;;;;5065127;28;20234;-59
2022/05/30 06:28:31;;;;;;;3.60;0.73;;;10.50;99.90;;;;;;5067268;28;20052;-64
2022/05/30 06:30:56;;;;;;;2.15;0.70;;;10.60;99.90;;;;;;5068965;28;20495;-59
2022/05/30 06:33:22;;;;;;;1.80;0.55;;;10.60;99.90;;;;;;5035193;28;20087;-60
2022/05/30 06:35:48;;;;;;;2.95;0.63;;;10.60;99.90;;;;;;5069104;28;20055;-65
2022/05/30 06:38:13;;;;;;;2.85;0.75;;;10.60;99.90;;;;;;5068876;28;20048;-66
2022/05/30 06:40:40;;;;;;;3.58;0.68;;;10.60;99.90;;;;;;5031240;28;20048;-64
2022/05/30 06:43:06;;;;;;;3.10;0.95;;;10.90;99.90;;;;;;5065848;28;20066;-66
2022/05/30 06:45:33;;;;;;;2.13;0.73;;;11.00;99.90;;;;;;5067997;28;20394;-63
2022/05/30 06:47:59;;;;;;;5.55;0.63;;;11.10;99.90;;;;;;5050055;28;20041;-61
2022/05/30 06:50:26;;;;;;;2.13;0.50;;;11.20;99.90;;;;;;5050683;28;20127;-59
2022/05/30 06:52:52;;;;;;;3.15;0.70;;;11.20;99.90;;;;;;5068961;28;20533;-64
2022/05/30 06:55:18;;;;;;;5.03;0.70;;;11.30;99.90;;;;;;5068219;28;20072;-64
2022/05/30 07:00:30;;;;;;;3.08;0.85;;;11.30;99.90;;;;;;5051414;28;20045;-61
2022/05/30 07:02:57;;;;;;;2.95;0.90;;;11.20;99.90;;;;;;5051325;28;20041;-64
2022/05/30 07:05:23;;;;;;;2.40;0.80;;;11.20;99.90;;;;;;5066276;28;20235;-63
2022/05/30 07:07:50;;;;;;;3.08;0.70;;;11.40;99.90;;;;;;5067829;28;20040;-59
2022/05/30 07:10:15;;;;;;;2.00;0.70;;;11.60;99.90;;;;;;5068042;28;20040;-61
2022/05/30 07:12:41;;;;;;;1.80;0.77;;;12.10;99.90;;;;;;5068541;28;20542;-59
2022/05/30 07:15:13;;;;;;;6.70;0.82;;;12.50;99.90;;;;;;5031599;28;20478;-60
2022/05/30 07:17:38;;;;;;;1.95;0.57;;;12.80;98.40;;;;;;5065910;28;20056;-60
2022/05/30 07:20:05;;;;;;;0.50;0.22;;;12.50;94.60;;;;;;5066929;28;20050;-69
2022/05/30 07:22:30;;;;;;;0.93;0.50;;;11.90;95.80;;;;;;5049599;28;20048;-61
2022/05/30 07:24:56;;;;;;;0.88;0.38;;;11.70;99.40;;;;;;5046871;28;20106;-60
2022/05/30 07:31:10;;;;;;;1.85;0.50;;;11.60;99.90;;;;;;5071904;22;20055;-70
2022/05/30 07:33:37;;;;;;;2.17;0.50;;;12.20;97.70;;;;;;4985489;28;20077;-63
2022/05/30 07:36:08;;;;;;;0.82;0.20;;;12.80;98.10;;;;;;4992563;28;20126;-60
2022/05/30 07:38:35;;;;;;;1.90;0.40;;;12.80;91.90;;;;;;4992952;28;20042;-67
2022/05/30 07:41:00;;;;;;;2.58;0.50;;;12.60;94.60;;;;;;5012398;28;20121;-72
2022/05/30 07:43:26;;;;;;;5.05;0.50;;;12.40;91.30;;;;;;5000382;28;20072;-62
2022/05/30 07:45:52;;;;;;;1.63;0.40;;;12.10;84.70;;;;;;5012213;28;20053;-60
2022/05/30 07:48:19;;;;;;;0.20;0.20;;;11.80;88.00;;;;;;4994225;28;20080;-68
2022/05/30 07:50:45;;;;;;;0.10;0.10;;;11.90;92.00;;;;;;5002487;28;20053;-62
2022/05/30 07:53:13;;;;;;;1.17;0.45;;;12.30;85.00;;;;;;5010460;28;20033;-64
2022/05/30 07:55:39;;;;;;;1.45;0.32;;;12.70;70.70;;;;;;4994205;28;20045;-64
2022/05/30 07:58:05;;;;;;;1.40;0.20;;;12.80;74.00;;;;;;5012096;28;20041;-71
2022/05/30 08:00:34;;;;;;;1.33;0.50;;;12.60;63.70;;;;;;5011316;28;20037;-62
2022/05/30 08:03:00;;;;;;;0.25;0.20;;;12.60;71.50;;;;;;4995345;28;20505;-62
2022/05/30 08:05:26;;;;;;;1.98;0.30;;;12.50;70.10;;;;;;5000216;28;20037;-68
2022/05/30 08:07:52;;;;;;;1.95;0.47;;;12.40;77.60;;;;;;5012031;28;20049;-61
2022/05/30 08:10:19;;;;;;;0.28;0.20;;;12.30;67.10;;;;;;5010979;28;20393;-65
2022/05/30 08:12:47;;;;;;;0.10;0.10;;;12.50;79.60;;;;;;4992871;28;20030;-64
2022/05/30 08:15:14;;;;;;;1.38;0.30;;;12.80;73.80;;;;;;4994877;28;20045;-66
2022/05/30 08:17:42;;;;;;;0.55;0.15;;;12.70;68.70;;;;;;5009624;28;20403;-61
2022/05/30 08:20:12;;;;;;;0.73;0.63;;;12.70;73.80;;;;;;5011204;28;20037;-61
2022/05/30 08:22:38;;;;;;;3.00;0.20;;;12.70;78.10;;;;;;5010042;28;20056;-65
2022/05/30 08:25:08;;;;;;;0.50;0.20;;;12.80;73.50;;;;;;5012200;28;20057;-58
2022/05/30 08:27:34;;;;;;;1.42;0.10;;;13.30;72.60;;;;;;4994086;28;20081;-69
2022/05/30 08:29:59;;;;;;;0.73;0.30;;;13.70;55.80;;;;;;4992285;28;20084;-60
2022/05/30 08:32:33;;;;;;;1.30;0.30;;;14.10;55.10;;;;;;4992909;28;20058;-57
2022/05/30 08:35:00;;;;;;;2.53;0.40;;;14.20;49.10;;;;;;5002053;28;20081;-59
2022/05/30 08:37:30;;;;;;;3.53;0.68;;;13.90;68.80;;;;;;5002134;28;20139;-68
2022/05/30 08:42:50;;;;;;;0.75;0.20;;;13.20;62.80;;;;;;5007652;28;19929;-63
2022/05/30 08:45:20;;;;;;;0.95;0.17;;;12.90;70.40;;;;;;5008147;28;20137;-61
2022/05/30 08:47:54;;;;;;;0.67;0.20;;;12.60;77.90;;;;;;5006702;28;20054;-67
2022/05/30 08:50:34;;;;;;;0.88;0.10;;;12.40;70.50;;;;;;5007297;28;20851;-66
2022/05/30 08:53:31;;;;;;;3.50;0.40;;;12.40;76.80;;;;;;5001243;28;20108;-65
2022/05/30 08:56:22;;;;;;;0.30;0.30;;;13.10;75.00;;;;;;4990597;28;20057;-60
2022/05/30 08:59:25;;;;;;;1.95;0.28;;;14.00;68.40;;;;;;4988826;28;20069;-62
2022/05/30 09:02:06;;;;;;;0.85;0.22;;;14.10;60.40;;;;;;5005143;28;20088;-67
2022/05/30 09:04:43;;;;;;;1.85;0.20;;;13.90;56.50;;;;;;5003037;28;20381;-67
2022/05/30 09:07:24;;;;;;;0.68;0.40;;;13.60;59.00;;;;;;4981010;28;20050;-60
2022/05/30 09:10:13;;;;;;;0.63;0.30;;;13.40;57.70;;;;;;4972352;28;20636;-67
2022/05/30 09:13:00;;;;;;;1.83;0.40;;;13.10;66.80;;;;;;4998473;28;20542;-63
2022/05/30 09:16:07;;;;;;;2.55;1.60;;;12.60;81.10;;;;;;5005587;28;20049;-70
2022/05/30 09:18:47;;;;;;;2.75;1.10;;;11.70;98.40;;;;;;4986368;28;20087;-65
2022/05/30 09:21:18;;;;;;;3.38;0.63;;;11.10;99.90;;;;;;5005334;28;20141;-63
2022/05/30 09:23:44;;;;;;;1.10;0.40;;;10.70;99.90;;;;;;5005847;28;20077;-59
2022/05/30 09:26:16;;;;;;;0.35;0.20;;;10.40;99.90;;;;;;5006275;28;21275;-69
2022/05/30 09:28:43;;;;;;;0.98;0.20;;;10.40;99.90;;;;;;4989777;28;20095;-68
2022/05/30 09:31:18;;;;;;;0.88;0.30;;;10.40;99.90;;;;;;5005838;28;20042;-66
2022/05/30 09:33:48;;;;;;;4.38;0.40;;;10.40;99.90;;;;;;4990787;28;20511;-67
2022/05/30 09:36:19;;;;;;;0.40;0.30;;;10.50;99.90;;;;;;5008709;28;20046;-62
2022/05/30 09:39:14;;;;;;;7.57;0.60;;;10.60;99.90;;;;;;4992089;28;20527;-63
2022/05/30 09:41:39;;;;;;;0.65;0.40;;;10.70;99.90;;;;;;5008128;28;20053;-62
2022/05/30 09:44:10;;;;;;;2.53;0.20;;;10.90;99.90;;;;;;5007842;28;20052;-65
2022/05/30 09:46:50;;;;;;;0.50;0.32;;;11.10;99.90;;;;;;4990032;28;20041;-60
2022/05/30 09:49:18;;;;;;;1.33;0.25;;;11.40;99.90;;;;;;5003908;28;20050;-59
2022/05/30 09:51:51;;;;;;;3.40;0.30;;;11.50;99.90;;;;;;5008408;28;20396;-62
2022/05/30 09:54:26;;;;;;;0.55;0.28;;;11.70;99.90;;;;;;4992660;28;20547;-65
2022/05/30 09:57:05;;;;;;;0.80;0.28;;;12.00;99.90;;;;;;4988085;28;20393;-68
2022/05/30 09:59:52;;;;;;;1.25;0.10;;;12.20;99.90;;;;;;4988701;28;20089;-62
2022/05/30 10:02:27;;;;;;;0.47;0.28;;;12.40;99.90;;;;;;4987470;28;20400;-67
2022/05/30 10:05:13;;;;;;;1.02;0.20;;;12.70;99.90;;;;;;4988858;28;20483;-61
2022/05/30 10:07:54;;;;;;;0.47;0.30;;;12.90;99.90;;;;;;5006312;28;20053;-67
2022/05/30 10:10:22;;;;;;;0.70;0.30;;;13.10;97.50;;;;;;5005188;28;20472;-69
2022/05/30 10:12:58;;;;;;;2.97;0.30;;;13.30;98.10;;;;;;5005572;28;20056;-68
2022/05/30 10:15:29;;;;;;;1.83;0.40;;;13.40;97.30;;;;;;5005603;28;20052;-61
2022/05/30 10:17:58;;;;;;;1.95;0.40;;;13.40;93.20;;;;;;4989930;28;20045;-72
2022/05/30 10:21:09;;;;;;;1.65;0.30;;;13.30;98.40;;;;;;4990912;28;20120;-67
2022/05/30 10:29:55;;;;;;;0.45;0.30;;;12.70;95.10;;;;;;5008567;28;20049;-69
2022/05/30 10:33:06;;;;;;;2.15;0.50;;;12.50;98.80;;;;;;4991023;28;20060;-62
2022/05/30 10:35:54;;;;;;;0.73;0.40;;;12.30;99.90;;;;;;4986580;28;20627;-61
2022/05/30 10:38:26;;;;;;;2.90;0.50;;;12.00;99.90;;;;;;5024312;28;20061;-68
2022/05/30 10:41:03;;;;;;;2.35;0.60;;;11.80;99.90;;;;;;4982824;28;20421;-70
2022/05/30 10:44:07;;;;;;;3.80;0.20;;;11.70;99.90;;;;;;4989547;28;20046;-68
2022/05/30 10:46:59;;;;;;;2.67;0.30;;;11.60;99.90;;;;;;4974145;28;20817;-65
2022/05/30 10:49:30;;;;;;;0.95;0.30;;;11.60;99.90;;;;;;5006836;28;20059;-62
2022/05/30 10:52:17;;;;;;;1.15;0.50;;;11.60;99.90;;;;;;4991605;28;20092;-62
2022/05/30 10:54:49;;;;;;;3.85;0.50;;;11.60;99.90;;;;;;4988735;28;20133;-63
2022/05/30 10:57:41;;;;;;;2.15;0.38;;;11.60;99.90;;;;;;4986421;28;20594;-68
2022/05/30 11:00:22;;;;;;;3.55;0.60;;;11.60;99.90;;;;;;5019260;28;20045;-65
2022/05/30 11:03:10;;;;;;;1.15;0.50;;;11.60;99.90;;;;;;5021042;28;20120;-61
2022/05/30 11:06:14;;;;;;;0.60;0.40;;;11.60;99.90;;;;;;5007309;28;20044;-63
2022/05/30 11:08:56;;;;;;;1.85;0.38;;;11.50;99.90;;;;;;5011880;28;20057;-69
2022/05/30 11:11:53;;;;;;;1.17;0.50;;;11.40;99.90;;;;;;5000127;28;20053;-68
2022/05/30 11:14:43;;;;;;;2.35;0.60;;;11.40;99.90;;;;;;4962055;28;20479;-65
2022/05/30 11:17:32;;;;;;;4.53;0.75;;;11.40;99.90;;;;;;5015654;28;20088;-63
2022/05/30 11:20:15;;;;;;;5.47;0.57;;;11.50;99.90;;;;;;5024504;28;20052;-72
2022/05/30 11:22:50;;;;;;;2.22;0.82;;;11.60;99.90;;;;;;4991524;28;20080;-65
2022/05/30 11:25:54;;;;;;;3.50;0.90;;;11.70;99.90;;;;;;4991348;28;20076;-66
2022/05/30 11:28:42;;;;;;;3.92;1.73;;;11.80;99.90;;;;;;5009793;28;20399;-66
2022/05/30 11:31:22;;;;;;;4.75;2.30;;;11.80;99.90;;;;;;5011792;28;20064;-66
2022/05/30 11:34:06;;;;;;;;;;;12.10;99.90;;;;;;4995060;28;20046;-62
2022/05/30 11:36:38;;;;;;;1.92;1.20;;;12.10;99.90;;;;;;4993133;28;19932;-70
2022/05/30 11:39:30;;;;;;;2.60;1.10;;;12.40;99.90;;;;;;4999920;28;20924;-65
2022/05/30 11:42:01;;;;;;;3.88;1.08;;;12.60;99.90;;;;;;5008001;28;20053;-61
2022/05/30 11:44:59;;;;;;;3.42;1.02;;;12.70;99.90;;;;;;5009218;28;20069;-71
2022/05/30 11:47:51;;;;;;;3.53;0.75;;;12.60;99.90;;;;;;5009388;28;20067;-70
2022/05/30 11:50:20;;;;;;;2.13;0.80;;;12.50;99.70;;;;;;5000975;28;20064;-66
2022/05/30 11:53:24;;;;;;;5.72;0.90;;;12.50;99.90;;;;;;5026716;28;20084;-64
2022/05/30 11:56:17;;;;;;;2.10;0.65;;;12.60;99.90;;;;;;5008314;28;20095;-70
2022/05/30 11:59:09;;;;;;;2.30;0.88;;;12.50;99.90;;;;;;4997771;28;20119;-66
2022/05/30 12:01:38;;;;;;;3.47;0.60;;;12.40;99.90;;;;;;4995771;28;20053;-65
2022/05/30 12:04:28;;;;;;;2.05;0.80;;;12.40;99.90;;;;;;5010728;28;20053;-65
2022/05/30 12:07:09;;;;;;;3.60;0.70;;;12.50;99.90;;;;;;5025246;28;20052;-68
2022/05/30 12:10:06;;;;;;;1.38;0.60;;;12.60;99.90;;;;;;5010962;28;20057;-67
2022/05/30 12:12:47;;;;;;;1.48;0.70;;;12.50;96.60;;;;;;4994593;28;20124;-65
2022/05/30 12:15:48;;;;;;;4.53;0.77;;;12.60;99.90;;;;;;5009858;28;20057;-61
2022/05/30 12:24:19;;;;;;;2.13;0.65;;;12.60;99.90;;;;;;5008874;28;20107;-66
2022/05/30 12:26:55;;;;;;;1.27;0.47;;;12.50;99.90;;;;;;5010498;28;20049;-66
2022/05/30 12:29:39;;;;;;;3.70;1.25;;;12.30;99.90;;;;;;4993308;28;20049;-61
2022/05/30 12:32:36;;;;;;;4.40;0.70;;;12.10;99.90;;;;;;5023611;28;20500;-62
2022/05/30 12:35:13;;;;;;;4.35;0.60;;;12.00;99.90;;;;;;5010087;28;20136;-66
2022/05/30 12:37:46;;;;;;;4.85;0.40;;;12.00;99.90;;;;;;5008329;28;20064;-60
2022/05/30 12:40:27;;;;;;;3.22;0.60;;;12.00;99.90;;;;;;5021595;28;20511;-60
2022/05/30 12:43:23;;;;;;;2.08;0.40;;;12.00;99.90;;;;;;5005800;28;20171;-67
2022/05/30 12:45:54;;;;;;;0.20;0.20;;;12.00;99.90;;;;;;5000147;28;20088;-59
2022/05/30 12:48:33;;;;;;;0.88;0.50;;;12.10;99.90;;;;;;5007823;28;20045;-71
2022/05/30 12:51:01;;;;;;;1.40;0.50;;;12.30;99.90;;;;;;5006850;28;20049;-66
2022/05/30 12:53:58;;;;;;;1.73;0.43;;;12.40;99.90;;;;;;4988838;28;20042;-69
2022/05/30 12:56:47;;;;;;;3.83;0.60;;;12.50;99.90;;;;;;5008011;28;20051;-63
2022/05/30 12:59:26;;;;;;;1.40;0.30;;;12.70;99.90;;;;;;5003944;28;20555;-64
2022/05/30 13:01:55;;;;;;;0.25;0.25;;;12.80;99.50;;;;;;4989687;28;20054;-65
2022/05/30 13:04:35;;;;;;;0.77;0.30;;;13.00;99.50;;;;;;5007842;28;20052;-67
2022/05/30 13:07:04;;;;;;;0.95;0.30;;;13.20;97.30;;;;;;4987769;28;20045;-68
2022/05/30 13:09:42;;;;;;;0.67;0.30;;;13.40;95.80;;;;;;5024479;28;20096;-67
2022/05/30 13:12:10;;;;;;;0.73;0.30;;;13.60;94.60;;;;;;5004195;28;20116;-68
2022/05/30 13:15:00;;;;;;;0.20;0.20;;;13.70;80.70;;;;;;4988141;28;20570;-71
2022/05/30 13:17:41;;;;;;;0.52;0.35;;;13.80;81.00;;;;;;4990887;28;20038;-67
2022/05/30 13:20:13;;;;;;;3.92;0.43;;;13.80;86.90;;;;;;4987840;28;20073;-65
2022/05/30 13:22:51;;;;;;;2.45;0.73;;;13.90;85.20;;;;;;5005578;28;20466;-63
2022/05/30 13:25:32;;;;;;;1.27;0.50;;;13.60;73.10;;;;;;5008659;28;20409;-61
2022/05/30 13:28:14;;;;;;;0.93;0.43;;;13.30;75.90;;;;;;5008856;28;20049;-71
2022/05/30 13:30:40;;;;;;;1.58;0.60;;;12.80;76.50;;;;;;4992772;28;20088;-63
2022/05/30 13:33:14;;;;;;;1.85;0.50;;;12.60;78.30;;;;;;5012086;28;20053;-66
2022/05/30 13:35:42;;;;;;;0.45;0.40;;;12.40;86.90;;;;;;4993768;28;20045;-62
2022/05/30 13:38:11;;;;;;;1.33;0.52;;;12.30;83.60;;;;;;5007747;28;20444;-61
2022/05/30 13:40:38;;;;;;;1.10;0.50;;;12.20;92.90;;;;;;5009014;28;20128;-63
2022/05/30 13:43:14;;;;;;;0.90;0.30;;;12.30;98.40;;;;;;4992872;28;20402;-60
2022/05/30 13:45:44;;;;;;;2.35;0.50;;;12.30;99.10;;;;;;4991741;28;20046;-67